Time;durP1;ratioP1;P1;durP2;ratioP2;P2;SDS_P1;SDS_P2;PMS_P1;PMS_P2;Temp;Humidity;BMP_temperature;BMP_pressure;BME280_temperature;BME280_humidity;BME280_pressure;Samples;Min_cycle;Max_cycle;Signal;HPM_P1;HPM_P2
2021/12/20 00:00:52;;;;;;;0.70;0.70;;;;;;;1.07;73.91;101330.66;5087326;28;20028;-67
2021/12/20 00:03:17;;;;;;;1.15;0.80;;;;;;;1.04;74.07;101338.19;5087308;28;20028;-67
2021/12/20 00:05:43;;;;;;;3.78;1.13;;;;;;;1.05;73.97;101342.47;5086960;28;20027;-65
2021/12/20 00:08:08;;;;;;;0.75;0.73;;;;;;;1.04;74.14;101335.63;5087077;28;20070;-65
2021/12/20 00:10:34;;;;;;;0.70;0.70;;;;;;;0.99;73.58;101330.28;5086776;28;20047;-66
2021/12/20 00:13:00;;;;;;;0.73;0.68;;;;;;;0.97;72.10;101324.22;5086935;28;20027;-65
2021/12/20 00:15:25;;;;;;;0.70;0.68;;;;;;;0.99;73.15;101318.38;5086753;28;20024;-65
2021/12/20 00:17:51;;;;;;;0.63;0.63;;;;;;;0.99;73.03;101323.47;5086785;28;20024;-66
2021/12/20 00:20:17;;;;;;;3.03;0.70;;;;;;;1.04;73.06;101330.50;5086710;28;20025;-65
2021/12/20 00:22:43;;;;;;;1.10;0.90;;;;;;;0.97;72.36;101332.78;5085399;28;20472;-66
2021/12/20 00:25:09;;;;;;;1.33;0.80;;;;;;;1.01;73.51;101330.38;5086890;28;20067;-66
2021/12/20 00:27:34;;;;;;;1.00;0.85;;;;;;;0.96;73.97;101327.56;5086803;28;20035;-66
2021/12/20 00:30:00;;;;;;;1.00;0.90;;;;;;;0.95;74.09;101326.72;5086504;28;20032;-66
2021/12/20 00:32:25;;;;;;;1.08;0.80;;;;;;;0.97;74.54;101329.34;5086689;28;20427;-66
2021/12/20 00:34:51;;;;;;;1.08;0.68;;;;;;;0.89;73.71;101326.44;5085028;28;20024;-65
2021/12/20 00:40:20;;;;;;;1.38;0.70;;;;;;;0.90;74.14;101333.28;5086321;28;20043;-66
2021/12/20 00:42:51;;;;;;;0.85;0.80;;;;;;;0.88;73.14;101341.69;5086387;28;20024;-66
2021/12/20 00:45:18;;;;;;;1.52;0.90;;;;;;;0.86;72.82;101342.50;5086316;28;20167;-66
2021/12/20 00:47:43;;;;;;;2.13;0.82;;;;;;;0.80;72.66;101336.22;5086551;28;20059;-66
2021/12/20 00:50:11;;;;;;;1.45;0.80;;;;;;;0.88;72.89;101344.25;5086139;28;20016;-66
2021/12/20 00:52:36;;;;;;;1.08;0.85;;;;;;;0.85;73.58;101340.75;5085999;28;20032;-66
2021/12/20 00:55:02;;;;;;;1.33;0.75;;;;;;;0.84;74.08;101341.56;5086347;28;20024;-66
2021/12/20 00:57:28;;;;;;;1.85;0.80;;;;;;;0.82;73.78;101338.03;5086207;28;20041;-67
2021/12/20 00:59:53;;;;;;;1.38;0.85;;;;;;;0.82;73.29;101343.16;5086022;28;20031;-67
2021/12/20 01:02:18;;;;;;;0.85;0.80;;;;;;;0.76;72.80;101342.00;5086063;28;20048;-68
2021/12/20 01:04:44;;;;;;;1.17;0.77;;;;;;;0.83;72.92;101342.34;5085886;28;20075;-67
2021/12/20 01:07:10;;;;;;;1.73;0.90;;;;;;;0.79;72.20;101349.81;5085823;28;20024;-67
2021/12/20 01:09:36;;;;;;;0.70;0.70;;;;;;;0.78;72.58;101341.28;5084451;28;20020;-66
2021/12/20 01:12:05;;;;;;;1.10;0.80;;;;;;;0.80;73.04;101347.31;5085240;28;20044;-66
2021/12/20 01:14:33;;;;;;;2.45;0.85;;;;;;;0.81;73.12;101355.88;5084309;28;20020;-66
2021/12/20 01:17:05;;;;;;;1.70;0.75;;;;;;;0.78;72.76;101354.06;5085749;28;20021;-67
2021/12/20 01:19:31;;;;;;;0.90;0.80;;;;;;;0.79;73.00;101347.25;5085618;28;20028;-66
2021/12/20 01:21:56;;;;;;;1.42;0.70;;;;;;;0.81;72.64;101350.75;5085700;28;20439;-67
2021/12/20 01:24:22;;;;;;;1.45;1.05;;;;;;;0.79;73.04;101349.81;5085388;28;20021;-67
2021/12/20 01:26:47;;;;;;;3.20;1.23;;;;;;;0.77;73.04;101344.63;5085696;28;20067;-67
2021/12/20 01:29:13;;;;;;;4.88;1.33;;;;;;;0.76;73.02;101342.88;5085511;28;20340;-67
2021/12/20 01:31:38;;;;;;;1.00;0.80;;;;;;;0.69;72.55;101334.03;5085350;28;20024;-66
2021/12/20 01:34:04;;;;;;;1.40;0.75;;;;;;;0.70;72.99;101342.59;5085469;28;20376;-66
2021/12/20 01:36:29;;;;;;;2.30;0.85;;;;;;;0.68;73.10;101337.41;5085350;28;20021;-66
2021/12/20 01:38:54;;;;;;;0.63;0.63;;;;;;;0.70;72.88;101338.34;5085088;28;20024;-66
2021/12/20 01:41:20;;;;;;;0.90;0.80;;;;;;;0.72;72.58;101344.41;5084799;28;20028;-67
2021/12/20 01:43:45;;;;;;;1.42;0.85;;;;;;;0.70;72.56;101351.09;5085426;28;20044;-66
2021/12/20 01:46:11;;;;;;;0.80;0.70;;;;;;;0.69;72.15;101338.25;5085028;28;20409;-66
2021/12/20 01:48:37;;;;;;;2.13;1.00;;;;;;;0.70;72.62;101335.78;5083670;28;20100;-66
2021/12/20 01:53:31;;;;;;;1.13;0.73;;;;;;;0.76;72.34;101347.09;5085125;28;20032;-66
2021/12/20 01:55:57;;;;;;;0.73;0.63;;;;;;;0.70;72.39;101348.56;5085274;28;20049;-67
2021/12/20 01:58:24;;;;;;;2.63;0.82;;;;;;;0.79;72.12;101354.91;5084997;28;20030;-66
2021/12/20 02:03:35;;;;;;;3.03;0.75;;;;;;;0.79;72.70;101360.03;5085023;28;20050;-66
2021/12/20 02:06:05;;;;;;;1.60;0.80;;;;;;;0.75;72.57;101364.13;5084826;28;20381;-67
2021/12/20 02:08:30;;;;;;;2.45;0.73;;;;;;;0.76;72.77;101367.56;5084786;28;20342;-67
2021/12/20 02:11:03;;;;;;;0.93;0.73;;;;;;;0.72;72.78;101354.63;5084355;28;20218;-67
2021/12/20 02:13:30;;;;;;;1.17;0.70;;;;;;;0.70;72.67;101352.81;5084634;28;20020;-66
2021/12/20 02:15:57;;;;;;;2.30;0.90;;;;;;;0.54;72.63;101330.75;5084483;28;20503;-68
2021/12/20 02:18:22;;;;;;;2.75;1.00;;;;;;;0.69;72.71;101364.72;5084579;28;20024;-67
2021/12/20 02:20:48;;;;;;;1.35;0.80;;;;;;;0.68;72.61;101362.06;5084004;28;20413;-66
2021/12/20 02:23:13;;;;;;;3.00;0.80;;;;;;;0.68;72.58;101357.84;5084175;28;20501;-66
2021/12/20 02:25:39;;;;;;;0.80;0.70;;;;;;;0.67;72.97;101363.75;5084716;28;20412;-66
2021/12/20 02:28:10;;;;;;;1.80;0.70;;;;;;;0.66;73.04;101366.22;5084348;28;20025;-67
2021/12/20 02:38:35;;;;;;;3.40;1.13;;;;;;;0.57;73.82;101364.13;5084149;28;20051;-67
2021/12/20 02:41:16;;;;;;;1.15;0.77;;;;;;;0.52;73.51;101363.00;5083986;28;20484;-67
2021/12/20 02:43:58;;;;;;;2.65;1.00;;;;;;;0.49;74.27;101356.97;5084288;28;20036;-67
2021/12/20 02:49:14;;;;;;;3.10;1.15;;;;;;;0.47;75.05;101358.56;5084230;28;20046;-67
2021/12/20 02:51:40;;;;;;;1.58;0.90;;;;;;;0.46;74.92;101354.25;5083935;28;20124;-66
2021/12/20 02:54:08;;;;;;;1.95;0.82;;;;;;;0.42;74.86;101359.13;5083714;28;20044;-67
2021/12/20 02:56:34;;;;;;;1.52;0.75;;;;;;;0.41;74.79;101373.59;5083603;28;20103;-66
2021/12/20 02:59:00;;;;;;;1.17;0.70;;;;;;;0.35;74.85;101358.84;5083630;28;20028;-66
2021/12/20 03:01:25;;;;;;;3.15;0.95;;;;;;;0.37;75.32;101361.47;5082132;28;20025;-66
2021/12/20 03:03:53;;;;;;;1.50;1.00;;;;;;;0.38;75.05;101368.34;5083791;28;20032;-66
2021/12/20 03:06:37;;;;;;;0.75;0.70;;;;;;;0.38;75.34;101362.34;5083548;28;20017;-66
2021/12/20 03:09:04;;;;;;;1.30;0.73;;;;;;;0.38;75.39;101367.47;5083535;28;20039;-67
2021/12/20 03:11:30;;;;;;;1.90;0.80;;;;;;;0.35;75.15;101366.50;5082018;28;20051;-66
2021/12/20 03:14:08;;;;;;;3.63;0.85;;;;;;;0.35;75.39;101357.97;5083525;28;20087;-66
2021/12/20 03:16:34;;;;;;;1.80;0.80;;;;;;;0.34;75.56;101358.75;5083678;28;20048;-67
2021/12/20 03:19:04;;;;;;;2.13;1.00;;;;;;;0.33;75.76;101369.78;5083517;28;20028;-67
2021/12/20 03:21:30;;;;;;;1.23;0.70;;;;;;;0.31;76.20;101371.38;5083529;28;20329;-67
2021/12/20 03:23:55;;;;;;;1.40;0.80;;;;;;;0.30;76.30;101365.41;5083627;28;20035;-67
2021/12/20 03:26:20;;;;;;;5.30;0.85;;;;;;;0.27;76.22;101370.38;5083559;28;20676;-67
2021/12/20 03:28:47;;;;;;;0.77;0.70;;;;;;;0.18;76.34;101357.13;5083405;28;20028;-67
2021/12/20 03:31:13;;;;;;;1.45;0.90;;;;;;;0.22;76.66;101372.69;5083513;28;20024;-67
2021/12/20 03:33:38;;;;;;;1.85;0.82;;;;;;;0.21;76.37;101365.81;5082702;28;20465;-66
2021/12/20 03:36:04;;;;;;;1.23;0.70;;;;;;;0.21;76.88;101365.81;5083550;28;20031;-66
2021/12/20 03:38:29;;;;;;;1.13;0.80;;;;;;;0.20;77.13;101364.09;5083170;28;20032;-67
2021/12/20 03:40:55;;;;;;;2.70;1.00;;;;;;;0.19;77.39;101369.97;5083405;28;20028;-66
2021/12/20 03:43:23;;;;;;;2.08;0.98;;;;;;;0.16;77.65;101372.38;5083201;28;20024;-67
2021/12/20 03:45:51;;;;;;;2.58;0.98;;;;;;;0.10;77.92;101378.06;5083299;28;20024;-66
2021/12/20 03:48:16;;;;;;;1.67;1.00;;;;;;;0.08;78.05;101381.34;5083379;28;20084;-68
2021/12/20 03:50:42;;;;;;;1.75;0.80;;;;;;;0.03;77.90;101380.22;5083247;28;20024;-68
2021/12/20 03:53:07;;;;;;;2.17;0.90;;;;;;;-0.05;77.93;101380.69;5083025;28;20024;-68
2021/12/20 03:55:33;;;;;;;1.02;0.70;;;;;;;-0.03;78.25;101380.78;5083206;28;20023;-68
2021/12/20 03:57:58;;;;;;;2.83;0.95;;;;;;;-0.09;78.19;101381.34;5083047;28;20024;-67
2021/12/20 04:00:24;;;;;;;1.23;0.85;;;;;;;-0.14;77.61;101382.78;5083063;28;20024;-68
2021/12/20 04:02:49;;;;;;;2.08;0.90;;;;;;;-0.11;78.06;101382.94;5083034;28;20024;-68
2021/12/20 04:05:15;;;;;;;1.63;0.95;;;;;;;-0.14;78.25;101393.88;5083078;28;20436;-67
2021/12/20 04:07:41;;;;;;;2.03;0.90;;;;;;;-0.18;77.86;101389.44;5083041;28;20020;-67
2021/12/20 04:10:08;;;;;;;2.42;1.33;;;;;;;-0.20;77.84;101395.22;5082667;28;20040;-67
2021/12/20 04:12:33;;;;;;;2.13;1.13;;;;;;;-0.24;77.94;101394.22;5083107;28;20024;-67
2021/12/20 04:14:59;;;;;;;2.33;0.80;;;;;;;-0.20;77.67;101392.69;5083148;28;20039;-67
2021/12/20 04:17:24;;;;;;;1.58;0.80;;;;;;;-0.17;78.36;101395.41;5083167;28;20017;-66
2021/12/20 04:19:50;;;;;;;2.22;1.00;;;;;;;-0.22;78.43;101396.84;5083212;28;20033;-67
2021/12/20 04:22:18;;;;;;;2.00;0.80;;;;;;;-0.29;78.34;101388.00;5082811;28;20028;-67
2021/12/20 04:24:44;;;;;;;0.75;0.70;;;;;;;-0.28;78.38;101388.06;5082716;28;20020;-66
2021/12/20 04:27:09;;;;;;;1.25;0.80;;;;;;;-0.24;78.94;101385.69;5082886;28;20031;-67
2021/12/20 04:29:35;;;;;;;1.75;0.88;;;;;;;-0.24;78.95;101390.78;5082611;28;20054;-66
2021/12/20 04:32:00;;;;;;;3.47;0.70;;;;;;;-0.18;78.98;101389.44;5082854;28;20025;-67
2021/12/20 04:34:26;;;;;;;2.15;1.08;;;;;;;-0.16;79.08;101392.06;5082790;28;20016;-66
2021/12/20 04:36:52;;;;;;;2.90;1.27;;;;;;;-0.17;79.40;101388.63;5082684;28;20023;-66
2021/12/20 04:39:20;;;;;;;1.33;0.68;;;;;;;-0.17;79.27;101396.28;5082780;28;20021;-66
2021/12/20 04:41:46;;;;;;;1.73;1.02;;;;;;;-0.17;79.32;101400.50;5082412;28;20380;-67
2021/12/20 04:44:11;;;;;;;5.00;1.10;;;;;;;-0.18;79.30;101407.31;5083949;28;20068;-66
2021/12/20 04:46:37;;;;;;;2.58;0.95;;;;;;;-0.20;79.46;101403.78;5084898;28;20520;-66
2021/12/20 04:49:03;;;;;;;2.58;1.30;;;;;;;-0.22;79.54;101399.41;5086461;28;20024;-66
2021/12/20 04:51:29;;;;;;;2.30;1.20;;;;;;;-0.24;79.71;101406.97;5086007;28;20038;-66
2021/12/20 04:53:54;;;;;;;6.15;1.10;;;;;;;-0.23;79.99;101405.28;5086099;28;20033;-67
2021/12/20 04:56:19;;;;;;;2.50;0.88;;;;;;;-0.25;80.15;101410.31;5086113;28;20080;-67
2021/12/20 04:58:45;;;;;;;1.55;0.82;;;;;;;-0.28;80.02;101410.16;5086136;28;20048;-66
2021/12/20 05:01:10;;;;;;;3.03;1.13;;;;;;;-0.29;80.10;101409.25;5085891;28;20028;-67
2021/12/20 05:03:35;;;;;;;6.55;1.23;;;;;;;-0.32;80.19;101415.91;5085962;28;20028;-66
2021/12/20 05:06:01;;;;;;;5.90;1.08;;;;;;;-0.34;80.42;101410.72;5085856;28;20107;-67
2021/12/20 05:08:33;;;;;;;1.90;0.88;;;;;;;-0.36;80.32;101416.53;5085846;28;20384;-68
2021/12/20 05:11:00;;;;;;;0.85;0.65;;;;;;;-0.41;80.27;101414.63;5085507;28;20108;-68
2021/12/20 05:13:25;;;;;;;1.67;0.90;;;;;;;-0.41;80.16;101416.28;5085678;28;20130;-68
2021/12/20 05:15:51;;;;;;;5.20;0.93;;;;;;;-0.40;79.82;101424.00;5085754;28;20523;-67
2021/12/20 05:18:16;;;;;;;6.88;1.30;;;;;;;-0.41;80.16;101409.50;5084506;28;20035;-68
2021/12/20 05:20:42;;;;;;;2.85;0.93;;;;;;;-0.36;79.43;101421.63;5085631;28;20031;-69
2021/12/20 05:23:08;;;;;;;1.67;0.90;;;;;;;-0.41;80.01;101408.63;5084018;28;20059;-69
2021/12/20 05:25:34;;;;;;;2.13;0.90;;;;;;;-0.36;80.45;101419.97;5085761;28;20070;-68
2021/12/20 05:27:59;;;;;;;1.90;0.98;;;;;;;-0.40;80.54;101418.06;5085458;28;20028;-68
2021/12/20 05:30:25;;;;;;;1.60;0.90;;;;;;;-0.40;80.73;101434.22;5085236;28;20069;-67
2021/12/20 05:32:50;;;;;;;3.88;0.90;;;;;;;-0.42;80.70;101442.59;5084147;28;20024;-67
2021/12/20 05:35:17;;;;;;;3.20;1.00;;;;;;;-0.43;80.89;101430.66;5085407;28;20088;-68
2021/12/20 05:37:43;;;;;;;2.22;1.02;;;;;;;-0.46;80.86;101441.56;5083792;28;20127;-68
2021/12/20 05:40:10;;;;;;;1.42;0.93;;;;;;;-0.47;80.95;101442.34;5083688;28;20087;-68
2021/12/20 05:42:36;;;;;;;2.97;1.45;;;;;;;-0.48;80.91;101445.72;5085158;28;20024;-69
2021/12/20 05:45:04;;;;;;;2.40;1.05;;;;;;;-0.52;80.98;101441.22;5085360;28;20025;-67
2021/12/20 05:47:29;;;;;;;3.78;0.95;;;;;;;-0.51;81.01;101448.97;5085646;28;20020;-68
2021/12/20 05:49:55;;;;;;;1.83;0.80;;;;;;;-0.50;80.84;101443.06;5085063;28;20030;-67
2021/12/20 05:52:20;;;;;;;2.00;1.05;;;;;;;-0.48;80.80;101438.06;5085172;28;20035;-68
2021/12/20 05:54:46;;;;;;;3.85;1.00;;;;;;;-0.50;80.89;101430.28;5083661;28;20021;-67
2021/12/20 05:57:11;;;;;;;5.68;1.20;;;;;;;-0.44;80.36;101439.97;5082970;28;20516;-67
2021/12/20 05:59:37;;;;;;;5.80;1.70;;;;;;;-0.42;80.19;101443.50;5084846;28;20035;-67
2021/12/20 06:02:02;;;;;;;3.67;1.17;;;;;;;-0.36;80.19;101458.25;5083681;28;20017;-68
2021/12/20 06:04:28;;;;;;;3.80;1.00;;;;;;;-0.40;80.60;101446.97;5085066;28;20202;-69
2021/12/20 06:06:53;;;;;;;2.30;0.90;;;;;;;-0.44;80.67;101444.19;5085041;28;20048;-67
2021/12/20 06:09:18;;;;;;;4.63;1.10;;;;;;;-0.38;81.00;101454.72;5084928;28;20491;-68
2021/12/20 06:11:44;;;;;;;6.13;1.20;;;;;;;-0.38;81.13;101460.72;5084678;28;20052;-67
2021/12/20 06:14:09;;;;;;;4.50;1.60;;;;;;;-0.45;81.23;101452.66;5083657;28;20027;-69
2021/12/20 06:16:35;;;;;;;8.02;1.60;;;;;;;-0.41;81.27;101459.66;5083629;28;20523;-68
2021/12/20 06:19:01;;;;;;;7.40;2.97;;;;;;;-0.46;81.19;101461.09;5084685;28;20036;-68
2021/12/20 06:21:26;;;;;;;5.05;1.35;;;;;;;-0.48;81.37;101461.03;5084180;28;20035;-67
2021/12/20 06:23:51;;;;;;;3.55;1.10;;;;;;;-0.62;81.51;101444.94;5084461;28;20024;-67
2021/12/20 06:26:17;;;;;;;3.75;1.23;;;;;;;-0.54;81.44;101474.31;5084577;28;20059;-69
2021/12/20 06:28:43;;;;;;;4.18;1.00;;;;;;;-0.58;81.37;101468.97;5083319;28;20035;-68
2021/12/20 06:31:08;;;;;;;2.65;1.10;;;;;;;-0.58;81.56;101461.31;5084205;28;20012;-68
2021/12/20 06:33:34;;;;;;;3.92;1.20;;;;;;;-0.59;81.52;101470.63;5084430;28;20016;-68
2021/12/20 06:35:59;;;;;;;5.03;1.60;;;;;;;-0.60;81.57;101468.88;5082902;28;20029;-68
2021/12/20 06:38:25;;;;;;;3.85;1.30;;;;;;;-0.55;81.56;101481.88;5084227;28;20029;-69
2021/12/20 06:40:52;;;;;;;4.53;1.33;;;;;;;-0.58;81.55;101476.59;5084012;28;20028;-68
2021/12/20 06:43:19;;;;;;;8.18;1.65;;;;;;;-0.54;81.61;101478.53;5084361;28;20020;-67
2021/12/20 06:45:45;;;;;;;10.32;1.85;;;;;;;-0.54;81.58;101479.41;5083091;28;20039;-68
2021/12/20 06:48:11;;;;;;;7.07;1.75;;;;;;;-0.68;81.84;101471.00;5084127;28;20016;-68
2021/12/20 06:50:36;;;;;;;3.78;1.30;;;;;;;-0.57;81.86;101486.91;5083910;28;20024;-68
2021/12/20 06:53:03;;;;;;;6.40;1.40;;;;;;;-0.54;81.84;101504.91;5083859;28;20349;-69
2021/12/20 06:55:28;;;;;;;4.97;1.40;;;;;;;-0.61;81.97;101491.75;5084261;28;20029;-68
2021/12/20 06:57:54;;;;;;;21.15;4.22;;;;;;;-0.54;81.94;101507.47;5084078;28;20028;-68
2021/12/20 07:00:20;;;;;;;11.65;2.88;;;;;;;-0.61;82.19;101497.75;5083779;28;20025;-68
2021/12/20 07:02:45;;;;;;;3.58;1.40;;;;;;;-0.53;81.91;101510.91;5084042;28;20477;-68
2021/12/20 07:05:10;;;;;;;4.13;1.42;;;;;;;-0.55;81.90;101517.59;5084020;28;20032;-68
2021/12/20 07:07:36;;;;;;;5.22;1.45;;;;;;;-0.56;81.94;101521.81;5082889;28;20020;-68
2021/12/20 07:10:05;;;;;;;8.75;1.60;;;;;;;-0.55;82.07;101518.47;5083421;28;20127;-68
2021/12/20 07:12:33;;;;;;;4.28;1.50;;;;;;;-0.57;82.13;101514.97;5083811;28;20016;-68
2021/12/20 07:14:58;;;;;;;3.78;1.38;;;;;;;-0.55;82.10;101528.69;5083837;28;20025;-68
2021/12/20 07:17:24;;;;;;;4.90;1.20;;;;;;;-0.51;81.95;101529.72;5083942;28;20035;-69
2021/12/20 07:19:49;;;;;;;7.28;1.73;;;;;;;-0.52;81.87;101536.50;5083660;28;20020;-68
2021/12/20 07:22:14;;;;;;;9.05;1.67;;;;;;;-0.56;82.11;101532.00;5082421;28;20031;-68
2021/12/20 07:24:40;;;;;;;6.82;1.65;;;;;;;-0.48;82.19;101529.91;5083535;28;20035;-68
2021/12/20 07:27:07;;;;;;;10.45;1.48;;;;;;;-0.43;82.36;101543.78;5083810;28;20444;-68
2021/12/20 07:29:32;;;;;;;7.65;1.63;;;;;;;-0.45;82.39;101530.06;5083695;28;20036;-68
2021/12/20 07:31:58;;;;;;;6.25;1.80;;;;;;;-0.34;82.34;101545.97;5083528;28;20024;-68
2021/12/20 07:34:23;;;;;;;5.03;1.40;;;;;;;-0.34;82.42;101551.06;5082136;28;20024;-68
2021/12/20 07:36:50;;;;;;;3.80;1.42;;;;;;;-0.30;82.41;101549.56;5083374;28;20048;-68
2021/12/20 07:39:16;;;;;;;6.97;1.60;;;;;;;-0.31;82.49;101558.00;5083041;28;20025;-68
2021/12/20 07:41:41;;;;;;;11.60;1.80;;;;;;;-0.30;82.25;101558.09;5083573;28;20058;-68
2021/12/20 07:44:06;;;;;;;4.97;1.70;;;;;;;-0.42;82.21;101537.00;5083776;28;20021;-68
2021/12/20 07:46:32;;;;;;;6.75;1.50;;;;;;;-0.33;82.37;101557.03;5083427;28;20031;-67
2021/12/20 07:48:58;;;;;;;8.75;1.25;;;;;;;-0.47;82.34;101543.53;5083712;28;20044;-69
2021/12/20 07:51:23;;;;;;;4.72;1.17;;;;;;;-0.40;82.23;101569.47;5083242;28;20573;-68
2021/12/20 07:53:49;;;;;;;4.05;1.45;;;;;;;-0.40;82.15;101563.50;5083170;28;20028;-68
2021/12/20 07:56:16;;;;;;;7.35;1.98;;;;;;;-0.35;82.29;101567.16;5083200;28;20043;-68
2021/12/20 07:58:41;;;;;;;8.88;1.27;;;;;;;-0.38;82.38;101564.44;5083201;28;20082;-68
2021/12/20 08:01:07;;;;;;;7.97;1.95;;;;;;;-0.36;82.37;101570.53;5083112;28;20431;-67
2021/12/20 08:03:34;;;;;;;4.68;1.40;;;;;;;-0.33;82.60;101570.69;5083564;28;20474;-67
2021/12/20 08:06:00;;;;;;;3.28;1.42;;;;;;;-0.29;82.60;101571.75;5083346;28;20035;-67
2021/12/20 08:08:25;;;;;;;7.30;1.73;;;;;;;-0.35;82.54;101556.97;5083046;28;20028;-68
2021/12/20 08:10:51;;;;;;;5.50;1.50;;;;;;;-0.22;82.89;101567.88;5082790;28;20053;-68
2021/12/20 08:13:17;;;;;;;3.83;1.42;;;;;;;-0.02;82.74;101571.50;5083098;28;20024;-67
2021/12/20 08:15:42;;;;;;;5.47;1.52;;;;;;;0.13;82.66;101573.97;5083028;28;20025;-68
2021/12/20 08:18:07;;;;;;;5.75;1.60;;;;;;;0.30;82.45;101577.44;5082851;28;20427;-68
2021/12/20 08:20:33;;;;;;;4.93;1.45;;;;;;;0.32;82.01;101572.41;5086054;28;20021;-67
2021/12/20 08:22:59;;;;;;;6.25;1.65;;;;;;;0.46;81.82;101570.56;5087065;28;20078;-68
2021/12/20 08:25:24;;;;;;;6.60;1.80;;;;;;;0.55;81.72;101575.28;5086745;28;20365;-68
2021/12/20 08:27:51;;;;;;;5.68;1.55;;;;;;;0.67;81.57;101578.44;5085464;28;20103;-68
2021/12/20 08:30:17;;;;;;;6.25;2.33;;;;;;;0.77;81.44;101582.38;5087010;28;20025;-67
2021/12/20 08:32:43;;;;;;;4.13;1.40;;;;;;;0.94;81.46;101574.69;5086500;28;20520;-68
2021/12/20 08:35:11;;;;;;;7.70;1.60;;;;;;;1.18;81.40;101580.13;5086639;28;20040;-67
2021/12/20 08:37:36;;;;;;;6.20;1.52;;;;;;;1.41;80.83;101582.94;5086603;28;20185;-68
2021/12/20 08:40:04;;;;;;;6.80;2.13;;;;;;;1.55;80.35;101575.06;5086296;28;20028;-68
2021/12/20 08:42:30;;;;;;;10.38;1.90;;;;;;;1.82;79.74;101584.84;5086661;28;20080;-68
2021/12/20 08:44:55;;;;;;;9.90;1.70;;;;;;;2.06;79.95;101573.97;5086734;28;20067;-68
2021/12/20 08:47:21;;;;;;;3.22;1.50;;;;;;;2.48;79.67;101580.94;5086522;28;20119;-68
2021/12/20 08:49:47;;;;;;;7.57;1.48;;;;;;;2.77;78.75;101575.31;5085096;28;20021;-70
2021/12/20 08:52:13;;;;;;;7.03;1.63;;;;;;;3.10;78.60;101590.38;5086232;28;20024;-68
2021/12/20 08:54:39;;;;;;;7.50;1.92;;;;;;;3.38;77.90;101583.81;5084979;28;20104;-68
2021/12/20 08:57:05;;;;;;;4.00;1.90;;;;;;;3.73;77.42;101578.31;5086440;28;20388;-68
2021/12/20 08:59:31;;;;;;;11.43;1.60;;;;;;;4.32;77.21;101579.63;5086551;28;20040;-68
2021/12/20 09:01:59;;;;;;;7.72;1.60;;;;;;;4.86;76.45;101578.06;5086195;28;20032;-68
2021/12/20 09:04:24;;;;;;;10.10;2.35;;;;;;;5.51;75.60;101581.03;5086152;28;20107;-68
2021/12/20 09:06:50;;;;;;;5.80;1.70;;;;;;;5.94;74.65;101584.06;5086056;28;20087;-68
2021/12/20 09:09:16;;;;;;;5.28;1.50;;;;;;;6.53;73.70;101583.16;5086071;28;20017;-68
2021/12/20 09:11:42;;;;;;;6.20;1.52;;;;;;;7.01;72.47;101593.84;5085986;28;20603;-69
2021/12/20 09:14:07;;;;;;;4.25;1.30;;;;;;;7.35;71.76;101578.31;5086192;28;20442;-69
2021/12/20 09:16:33;;;;;;;5.63;1.40;;;;;;;7.81;70.73;101593.16;5086074;28;20036;-68
2021/12/20 09:18:58;;;;;;;6.32;1.63;;;;;;;8.10;70.09;101586.88;5085943;28;20024;-68
2021/12/20 09:21:24;;;;;;;4.75;1.77;;;;;;;8.06;68.96;101588.53;5085729;28;20028;-67
2021/12/20 09:23:49;;;;;;;9.68;1.58;;;;;;;7.92;69.50;101589.06;5085772;28;20024;-68
2021/12/20 09:26:15;;;;;;;4.97;1.30;;;;;;;7.86;69.62;101581.19;5085817;28;20088;-67
2021/12/20 09:28:41;;;;;;;5.78;1.77;;;;;;;7.76;69.65;101599.94;5084592;28;20032;-68
2021/12/20 09:31:08;;;;;;;5.03;1.63;;;;;;;7.42;69.38;101590.56;5084560;28;20025;-69
2021/12/20 09:33:35;;;;;;;6.72;1.83;;;;;;;7.08;69.87;101594.88;5085868;28;20460;-68
2021/12/20 09:36:01;;;;;;;6.15;1.52;;;;;;;6.61;70.76;101582.50;5085672;28;20369;-68
2021/12/20 09:38:29;;;;;;;6.50;1.98;;;;;;;6.36;71.09;101582.69;5085336;28;20432;-68
2021/12/20 09:43:49;;;;;;;3.90;1.55;;;;;;;6.51;72.31;101586.53;5085632;28;20024;-67
2021/12/20 09:46:16;;;;;;;19.88;2.40;;;;;;;7.18;71.88;101590.84;5085627;28;20055;-67
2021/12/20 09:48:44;;;;;;;5.05;1.50;;;;;;;7.80;70.59;101591.41;5085509;28;20032;-68
2021/12/20 09:51:10;;;;;;;5.38;1.80;;;;;;;8.42;67.28;101582.34;5085182;28;20088;-68
2021/12/20 09:53:35;;;;;;;8.07;1.67;;;;;;;9.02;67.02;101583.44;5085341;28;20080;-68
2021/12/20 09:56:01;;;;;;;4.70;1.27;;;;;;;9.52;66.73;101592.00;5085189;28;20024;-68
2021/12/20 09:58:27;;;;;;;5.07;1.38;;;;;;;10.14;65.24;101586.78;5085029;28;20044;-68
2021/12/20 10:00:54;;;;;;;7.72;1.52;;;;;;;10.68;63.14;101590.88;5085010;28;20036;-67
2021/12/20 10:03:23;;;;;;;4.07;1.10;;;;;;;11.05;62.82;101593.84;5085184;28;20029;-68
2021/12/20 10:05:52;;;;;;;2.00;1.10;;;;;;;11.51;61.37;101593.31;5083734;28;20477;-68
2021/12/20 10:08:20;;;;;;;5.57;1.42;;;;;;;11.87;60.52;101598.72;5084930;28;20033;-68
2021/12/20 10:10:49;;;;;;;5.32;1.52;;;;;;;12.04;59.95;101590.16;5084876;28;20060;-68
2021/12/20 10:13:24;;;;;;;7.25;1.77;;;;;;;12.10;59.60;101592.81;5085129;28;20027;-67
2021/12/20 10:15:49;;;;;;;7.88;1.50;;;;;;;12.14;59.59;101596.31;5085002;28;20107;-68
2021/12/20 10:18:16;;;;;;;15.05;1.75;;;;;;;11.78;59.25;101602.16;5084789;28;20112;-68
2021/12/20 10:20:42;;;;;;;4.57;1.50;;;;;;;11.58;60.13;101604.63;5084672;28;20031;-68
2021/12/20 10:23:12;;;;;;;5.57;1.40;;;;;;;11.08;61.95;101608.56;5084806;28;20046;-67
2021/12/20 10:25:39;;;;;;;5.72;1.58;;;;;;;10.56;63.29;101607.22;5084944;28;20040;-68
2021/12/20 10:28:12;;;;;;;8.60;1.73;;;;;;;10.08;65.57;101600.53;5084748;28;20108;-67
2021/12/20 10:30:45;;;;;;;8.65;2.00;;;;;;;9.76;67.07;101606.19;5084496;28;20048;-67
2021/12/20 10:33:14;;;;;;;7.07;1.90;;;;;;;9.50;68.21;101609.25;5084846;28;20062;-67
2021/12/20 10:35:43;;;;;;;6.35;2.33;;;;;;;9.09;68.50;101610.34;5084604;28;20021;-67
2021/12/20 10:38:23;;;;;;;6.28;1.75;;;;;;;8.61;69.32;101607.75;5084454;28;20024;-67
2021/12/20 10:41:03;;;;;;;6.55;1.60;;;;;;;8.29;71.08;101611.41;5084444;28;20462;-68
2021/12/20 10:43:38;;;;;;;4.03;1.50;;;;;;;7.93;72.64;101602.88;5084351;28;20028;-68
2021/12/20 10:46:14;;;;;;;5.95;1.88;;;;;;;7.62;72.85;101600.47;5084350;28;20025;-68
2021/12/20 10:48:41;;;;;;;7.68;1.38;;;;;;;7.28;72.16;101598.00;5084230;28;20104;-68
2021/12/20 10:51:20;;;;;;;3.90;1.83;;;;;;;6.92;72.00;101606.53;5084187;28;20073;-68
2021/12/20 10:53:50;;;;;;;4.00;1.67;;;;;;;6.53;72.38;101602.94;5084000;28;20017;-68
2021/12/20 10:56:18;;;;;;;3.38;1.77;;;;;;;6.17;73.00;101596.75;5084363;28;20043;-68
2021/12/20 10:58:43;;;;;;;7.45;1.60;;;;;;;5.87;71.90;101600.13;5084297;28;20025;-68
2021/12/20 11:03:44;;;;;;;4.30;2.05;;;;;;;5.53;72.84;101592.22;5084006;28;20120;-69
2021/12/20 11:11:27;;;;;;;7.05;1.80;;;;;;;4.93;72.35;101597.19;5083714;28;20127;-67
2021/12/20 11:13:53;;;;;;;7.15;2.10;;;;;;;4.62;72.90;101596.97;5082668;28;20388;-67
2021/12/20 11:16:34;;;;;;;8.35;2.10;;;;;;;4.50;71.51;101594.88;5083810;28;20025;-67
2021/12/20 11:19:20;;;;;;;6.18;1.80;;;;;;;4.45;72.00;101576.69;5084004;28;20025;-67
2021/12/20 11:21:49;;;;;;;9.73;1.85;;;;;;;4.71;71.38;101588.72;5083593;28;20033;-67
2021/12/20 11:24:21;;;;;;;6.50;2.28;;;;;;;4.88;69.72;101591.88;5083612;28;20026;-67
2021/12/20 11:26:46;;;;;;;6.43;2.25;;;;;;;4.89;68.64;101590.19;5083823;28;20051;-67
2021/12/20 11:29:12;;;;;;;13.63;2.58;;;;;;;4.57;68.76;101586.53;5083646;28;20028;-67
2021/12/20 11:31:37;;;;;;;8.93;2.22;;;;;;;4.22;69.42;101563.88;5083473;28;20024;-68
2021/12/20 11:34:03;;;;;;;3.92;1.55;;;;;;;4.13;69.66;101589.25;5083683;28;20021;-68
2021/12/20 11:36:29;;;;;;;5.28;2.15;;;;;;;4.07;70.88;101595.00;5083858;28;20027;-67
2021/12/20 11:38:58;;;;;;;6.00;1.77;;;;;;;3.95;71.03;101598.00;5083639;28;20036;-67
2021/12/20 11:41:25;;;;;;;6.53;1.70;;;;;;;3.68;71.36;101595.22;5083370;28;20024;-67
2021/12/20 11:43:51;;;;;;;7.18;1.92;;;;;;;3.38;71.90;101586.38;5083532;28;20031;-66
2021/12/20 11:46:19;;;;;;;5.55;3.38;;;;;;;3.17;72.06;101592.38;5083569;28;20017;-66
2021/12/20 11:48:45;;;;;;;5.45;1.83;;;;;;;2.91;72.46;101592.16;5083482;28;20029;-68
2021/12/20 11:51:10;;;;;;;6.70;2.33;;;;;;;2.72;72.90;101593.94;5083386;28;20103;-67
2021/12/20 11:53:40;;;;;;;8.35;1.95;;;;;;;2.57;72.71;101583.03;5083534;28;20012;-67
2021/12/20 11:56:06;;;;;;;11.23;2.95;;;;;;;2.38;73.18;101582.19;5087779;28;20067;-67